Bulk Phoenix — 3FQD9 — position and weather

sailwx.info

Track history (hours):
 
Tides and Currents Weather Stations Pressure Air Temp Water Temp Dewpoint Dewpoint Depression Visibility Wind Speed Wind Dir Waves Ship Positions

Bulk Phoenix

Last reported at 2018-Mar-28 20:37 UTC. Time now 2018-Jun-18 19:31 UTC.
Position S 28°30' E 032°36'.
Warning: this ship's position is months out of date.

Length 190 m; draft 8.8 m.

Type: Cargo ship. MMSI: 370699000.

Date/timePositionNaut miles runAvg speedWind from/ knotsBaromVisibWave heightAir tempDewpointWater temp
2018-Mar-28 20:37S 28°30' E 032°36'1 9.5
2018-Mar-28 20:30S 28°31' E 032°35'6 9.2
2018-Mar-28 19:53S 28°36' E 032°33'4 8.8
2018-Mar-28 19:29S 28°39' E 032°31'5 8.5
2018-Mar-28 18:53S 28°44' E 032°29'10 8.1
2018-Mar-28 17:42S 28°53' E 032°25'4 7.9
2018-Mar-28 17:10S 28°57' E 032°23'2 7.9
2018-Mar-28 16:59S 28°58' E 032°22'4 7.8
2018-Mar-28 16:30S 29°01' E 032°20'4 7.8
2018-Mar-28 16:00S 29°05' E 032°18'4 7.8
2018-Mar-28 15:30S 29°08' E 032°16'4 8.0
2018-Mar-28 15:00S 29°12' E 032°13'4 8.0
2018-Mar-28 14:30S 29°15' E 032°11'4 8.0
2018-Mar-28 14:00S 29°18' E 032°09'4 8.2
2018-Mar-28 13:30S 29°21' E 032°05'4 8.4
2018-Mar-28 13:00S 29°23' E 032°01'4 8.1
2018-Mar-28 12:30S 29°26' E 031°57'4 8.3
2018-Mar-28 12:00S 29°28' E 031°54'4 8.3
2018-Mar-28 11:30S 29°31' E 031°50'4 9.0
2018-Mar-28 11:00S 29°33' E 031°45'510.3
2018-Mar-28 10:30S 29°35' E 031°40'510.3
2018-Mar-28 10:00S 29°37' E 031°34'510.4
2018-Mar-28 09:30S 29°40' E 031°29'510.7
2018-Mar-28 09:00S 29°42' E 031°24'510.7
2018-Mar-28 08:30S 29°45' E 031°18'510.6
2018-Mar-28 08:00S 29°47' E 031°13'611.1
2018-Mar-28 07:30S 29°50' E 031°07'5 9.6
2018-Mar-28 07:00S 29°53' E 031°03'2 4.5
2018-Mar-28 06:30S 29°53' E 031°00'0 0.7
2018-Mar-28 05:55S 29°53' E 030°60'0 0.0
2018-Mar-28 05:25S 29°53' E 030°60'0 0.0
2018-Mar-28 04:55S 29°53' E 030°60'0 0.0
2018-Mar-28 04:28S 29°53' E 030°60'0 0.0
2018-Mar-28 03:58S 29°53' E 030°60'0 0.0
2018-Mar-28 03:25S 29°53' E 030°60'0 0.0
2018-Mar-28 02:55S 29°53' E 030°60'0 0.0
2018-Mar-28 02:25S 29°53' E 030°60'0 0.0
2018-Mar-28 01:58S 29°53' E 030°60'0 0.0
2018-Mar-28 01:25S 29°53' E 030°60'0 0.0
2018-Mar-28 00:55S 29°53' E 030°60'0 0.0
2018-Mar-28 00:25S 29°53' E 030°60'0 0.0
2018-Mar-27 23:55S 29°53' E 030°60'0 0.0
2018-Mar-27 23:25S 29°53' E 030°60'0 0.0
2018-Mar-27 22:58S 29°53' E 030°60'0 0.0
2018-Mar-27 22:25S 29°53' E 030°60'0 0.0
2018-Mar-27 21:55S 29°53' E 030°60'0 0.0
2018-Mar-27 21:28S 29°53' E 030°60'0 0.0
2018-Mar-27 20:49S 29°53' E 030°60'0 0.0
2018-Mar-27 20:25S 29°53' E 030°60'0 0.0
2018-Mar-27 19:49S 29°53' E 030°60'0 0.0
2018-Mar-27 19:28S 29°53' E 030°60'0 0.0
2018-Mar-27 18:58S 29°53' E 030°60'0 0.0
2018-Mar-27 18:25S 29°53' E 030°60'0 0.0
2018-Mar-27 17:58S 29°53' E 030°60'0 0.0
2018-Mar-27 17:28S 29°53' E 030°60'0 0.0
2018-Mar-27 16:58S 29°53' E 030°60'0 0.0
2018-Mar-27 16:28S 29°53' E 030°60'0 0.0
2018-Mar-27 15:58S 29°53' E 030°60'0 0.0
2018-Mar-27 15:25S 29°53' E 030°60'0 0.0
2018-Mar-27 14:55S 29°53' E 030°60'0 0.0
2018-Mar-27 14:28S 29°53' E 030°60'0 0.0
2018-Mar-27 13:55S 29°53' E 030°60'0 0.0
2018-Mar-27 13:25S 29°53' E 030°60'0 0.0
2018-Mar-27 12:55S 29°53' E 030°60'0 0.0
2018-Mar-27 12:25S 29°53' E 030°60'0 0.0
2018-Mar-27 11:55S 29°53' E 030°60'0 0.0
2018-Mar-27 10:37S 29°53' E 030°60'0 0.0
2018-Mar-27 10:25S 29°53' E 030°60'0 0.0
2018-Mar-27 09:49S 29°53' E 030°60'0 0.0
2018-Mar-27 09:25S 29°53' E 030°60'0 0.0
2018-Mar-27 08:55S 29°53' E 030°60'0 0.0
2018-Mar-27 08:25S 29°53' E 030°60'0 0.0
2018-Mar-27 07:55S 29°53' E 030°60'0 0.0
2018-Mar-27 07:25S 29°53' E 030°60'0 0.0
2018-Mar-27 06:55S 29°53' E 030°60'0 0.0
2018-Mar-27 06:25S 29°53' E 030°60'0 0.0
2018-Mar-27 05:55S 29°53' E 030°60'0 0.0
2018-Mar-27 05:28S 29°53' E 030°60'0 0.0
2018-Mar-27 04:58S 29°53' E 030°60'0 0.0
2018-Mar-27 04:22S 29°53' E 030°60'0 0.0
2018-Mar-27 03:55S 29°53' E 030°60'0 0.0
2018-Mar-27 03:28S 29°53' E 030°60'0 0.0
2018-Mar-27 02:58S 29°53' E 030°60'0 0.0
2018-Mar-27 02:25S 29°53' E 030°60'0 0.0
2018-Mar-27 01:55S 29°53' E 030°60'0 0.0
2018-Mar-27 01:25S 29°53' E 030°60'0 0.0
2018-Mar-27 00:55S 29°53' E 030°60'0 0.0
2018-Mar-27 00:25S 29°53' E 030°60'0 0.0
2018-Mar-26 23:55S 29°53' E 030°60'0 0.0
2018-Mar-26 23:28S 29°53' E 030°60'0 0.0
2018-Mar-26 22:55S 29°53' E 030°60'0 0.0
2018-Mar-26 22:25S 29°53' E 030°60'0 0.0
2018-Mar-26 21:55S 29°53' E 030°60'0 0.0
2018-Mar-26 21:28S 29°53' E 030°60'0 0.0
2018-Mar-26 20:55S 29°53' E 030°60'0 0.0
2018-Mar-26 20:28S 29°53' E 030°60'0 0.0
2018-Mar-26 19:55S 29°53' E 030°60'0 0.0
2018-Mar-26 19:25S 29°53' E 030°60'0 0.0
2018-Mar-26 18:58S 29°53' E 030°60'0 0.0
2018-Mar-26 18:28S 29°53' E 030°60'0 0.0
2018-Mar-26 17:58S 29°53' E 030°60'0 0.0
2018-Mar-26 17:28S 29°53' E 030°60'0 0.0
2018-Mar-26 16:58S 29°53' E 030°60'0 0.0
2018-Mar-26 16:28S 29°53' E 030°60'0 0.0
2018-Mar-26 15:55S 29°53' E 030°60'0 0.0
2018-Mar-26 15:25S 29°53' E 030°60'0 0.0
2018-Mar-26 14:55S 29°53' E 030°60'0 0.0
2018-Mar-26 14:28S 29°53' E 030°60'0 0.0
2018-Mar-26 13:55S 29°53' E 030°60'0 0.0
2018-Mar-26 13:25S 29°53' E 030°60'0 0.0
2018-Mar-26 12:55S 29°53' E 030°60'0 0.0
2018-Mar-26 12:25S 29°53' E 030°60'0 0.0
2018-Mar-26 11:55S 29°53' E 030°60'0 0.0
2018-Mar-26 11:25S 29°53' E 030°60'0 0.0
2018-Mar-26 10:58S 29°53' E 030°60'0 0.0
2018-Mar-26 10:25S 29°53' E 030°60'0 0.0
2018-Mar-26 09:55S 29°53' E 030°60'0 0.0
2018-Mar-26 09:25S 29°53' E 030°60'0 0.0
2018-Mar-26 08:58S 29°53' E 030°60'0 0.0
2018-Mar-26 08:25S 29°53' E 030°60'0 0.0
2018-Mar-26 07:58S 29°53' E 030°60'0 0.0
2018-Mar-26 07:25S 29°53' E 030°60'0 0.0
2018-Mar-26 06:55S 29°53' E 030°60'0 0.0
2018-Mar-26 06:25S 29°53' E 030°60'0 0.0
2018-Mar-26 05:55S 29°53' E 030°60'0 0.0
2018-Mar-26 05:28S 29°53' E 030°60'0 0.0
2018-Mar-26 04:58S 29°53' E 030°60'0 0.0
2018-Mar-26 04:25S 29°53' E 030°60'0 0.0
2018-Mar-26 03:58S 29°53' E 030°60'0 0.0
2018-Mar-26 03:28S 29°53' E 030°60'0 0.0
2018-Mar-26 02:55S 29°53' E 030°60'0 0.0
2018-Mar-26 02:25S 29°53' E 030°60'0 0.0
2018-Mar-26 01:55S 29°53' E 030°60'0 0.0
2018-Mar-26 01:28S 29°53' E 030°60'0 0.0
2018-Mar-26 00:55S 29°53' E 030°60'0 0.0
2018-Mar-26 00:25S 29°53' E 030°60'0 0.0
2018-Mar-25 23:55S 29°53' E 030°60'0 0.0
2018-Mar-25 23:25S 29°53' E 030°60'0 0.0
2018-Mar-25 22:55S 29°53' E 030°60'0 0.0
2018-Mar-25 22:25S 29°53' E 030°60'0 0.0
2018-Mar-25 21:55S 29°53' E 030°60'0 0.0
2018-Mar-25 21:25S 29°53' E 030°60'0 0.0
2018-Mar-25 20:55S 29°53' E 030°60'0 0.0
2018-Mar-25 20:25S 29°53' E 030°60'0 0.0
2018-Mar-25 19:55S 29°53' E 030°60'0 0.0
2018-Mar-25 19:25S 29°53' E 030°60'0 0.0
2018-Mar-25 18:55S 29°53' E 030°60'0 0.0
2018-Mar-25 18:28S 29°53' E 030°60'0 0.0
2018-Mar-25 17:58S 29°53' E 030°60'0 0.0
2018-Mar-25 17:25S 29°53' E 030°60'0 0.0
2018-Mar-25 16:58S 29°53' E 030°60'0 0.0
2018-Mar-25 16:28S 29°53' E 030°60'0 0.0
2018-Mar-25 15:46S 29°53' E 030°60'0 0.0
2018-Mar-25 15:28S 29°53' E 030°60'0 0.0
2018-Mar-25 14:58S 29°53' E 030°60'0 0.0
2018-Mar-25 14:28S 29°53' E 030°60'0 0.0
2018-Mar-25 13:55S 29°53' E 030°60'0 0.0
2018-Mar-25 13:25S 29°53' E 030°60'0 0.0
2018-Mar-25 12:58S 29°53' E 030°60'0 0.0
2018-Mar-25 12:25S 29°53' E 030°60'0 0.0
2018-Mar-25 11:55S 29°53' E 030°60'0 0.0
2018-Mar-25 11:25S 29°53' E 030°60'0 0.0
2018-Mar-25 10:55S 29°53' E 030°60'0 0.0
2018-Mar-25 10:19S 29°53' E 030°60'0 0.0
2018-Mar-25 09:55S 29°53' E 030°60'0 0.0
2018-Mar-25 09:25S 29°53' E 030°60'0 0.0
2018-Mar-25 08:55S 29°53' E 030°60'0 0.0
2018-Mar-25 08:28S 29°53' E 030°60'0 0.0
2018-Mar-25 07:55S 29°53' E 030°60'0 0.0
2018-Mar-25 07:25S 29°53' E 030°60'0 0.0
2018-Mar-25 06:55S 29°53' E 030°60'0 0.0
2018-Mar-25 06:25S 29°53' E 030°60'0 0.0
2018-Mar-25 05:55S 29°53' E 030°60'0 0.0
2018-Mar-25 05:25S 29°53' E 030°60'0 0.0
2018-Mar-25 04:58S 29°53' E 030°60'0 0.0
2018-Mar-25 04:28S 29°53' E 030°60'0 0.0
2018-Mar-25 03:58S 29°53' E 030°60'0 0.0
2018-Mar-25 03:25S 29°53' E 030°60'0 0.0
2018-Mar-25 02:55S 29°53' E 030°60'0 0.0
2018-Mar-25 02:28S 29°53' E 030°60'0 0.0
2018-Mar-25 01:55S 29°53' E 030°60'0 0.0
2018-Mar-25 01:28S 29°53' E 030°60'0 0.0
2018-Mar-25 00:58S 29°53' E 030°60'0 0.0
2018-Mar-25 00:28S 29°53' E 030°60'0 0.0
2018-Mar-24 23:58S 29°53' E 030°60'0 0.0
2018-Mar-24 23:28S 29°53' E 030°60'0 0.0
2018-Mar-24 22:58S 29°53' E 030°60'0 0.0
2018-Mar-24 22:25S 29°53' E 030°60'0 0.0
2018-Mar-24 21:58S 29°53' E 030°60'0 0.0
2018-Mar-24 21:25S 29°53' E 030°60'0 0.0
2018-Mar-24 20:55S 29°53' E 030°60'0 0.0
2018-Mar-24 20:28S 29°53' E 030°60'0 0.0
2018-Mar-24 19:58S 29°53' E 030°60'0 0.0
2018-Mar-24 19:28S 29°53' E 030°60'0 0.0
2018-Mar-24 18:58S 29°53' E 030°60'0 0.0
2018-Mar-24 18:28S 29°53' E 030°60'0 0.0
2018-Mar-24 17:58S 29°53' E 030°60'0 0.0
2018-Mar-24 17:28S 29°53' E 030°60'0 0.0
2018-Mar-24 16:58S 29°53' E 030°60'0 0.0
2018-Mar-24 16:28S 29°53' E 030°60'0 0.0
2018-Mar-24 15:58S 29°53' E 030°60'0 0.0
2018-Mar-24 15:25S 29°53' E 030°60'0 0.0
2018-Mar-24 14:55S 29°53' E 030°60'0 0.0
2018-Mar-24 14:25S 29°53' E 030°60'0 0.0
2018-Mar-24 13:55S 29°53' E 030°60'0 0.0
2018-Mar-24 13:25S 29°53' E 030°60'0 0.0
2018-Mar-24 12:58S 29°53' E 030°60'0 0.0
2018-Mar-24 12:25S 29°53' E 030°60'0 0.0
2018-Mar-24 11:58S 29°53' E 030°60'0 0.0
2018-Mar-24 11:28S 29°53' E 030°60'0 0.0
2018-Mar-24 10:58S 29°53' E 030°60'0 0.0
2018-Mar-24 10:28S 29°53' E 030°60'0 0.0
2018-Mar-24 09:55S 29°53' E 030°60'0 0.0
2018-Mar-24 09:28S 29°53' E 030°60'0 0.0
2018-Mar-24 08:58S 29°53' E 030°60'0 0.0
2018-Mar-24 08:25S 29°53' E 030°60'0 0.0
2018-Mar-24 07:55S 29°53' E 030°60'0 0.0
2018-Mar-24 07:25S 29°53' E 030°60'0 0.0
2018-Mar-24 06:58S 29°53' E 030°60'0 0.0
2018-Mar-24 06:25S 29°53' E 030°60'0 0.0
2018-Mar-24 05:58S 29°53' E 030°60'0 0.0
2018-Mar-24 05:28S 29°53' E 030°60'0 0.0
2018-Mar-24 04:58S 29°53' E 030°60'0 0.0
2018-Mar-24 04:28S 29°53' E 030°60'0 0.0
2018-Mar-24 03:55S 29°53' E 030°60'0 0.0
2018-Mar-24 03:28S 29°53' E 030°60'0 0.0
2018-Mar-24 02:55S 29°53' E 030°60'0 0.0
2018-Mar-24 02:28S 29°53' E 030°60'0 0.0
2018-Mar-24 01:58S 29°53' E 030°60'0 0.0
2018-Mar-24 01:28S 29°53' E 030°60'0 0.0
2018-Mar-24 00:55S 29°53' E 030°60'0 0.0
2018-Mar-24 00:28S 29°53' E 030°60'0 0.0
2018-Mar-23 23:55S 29°53' E 030°60'0 0.0
2018-Mar-23 23:25S 29°53' E 030°60'0 0.0
2018-Mar-23 22:55S 29°53' E 030°60'0 0.0
2018-Mar-23 22:25S 29°53' E 030°60'0 0.0
2018-Mar-23 21:58S 29°53' E 030°60'0 0.0
2018-Mar-23 21:28S 29°53' E 030°60'0 0.0
2018-Mar-23 20:58S 29°53' E 030°60'0 0.0
2018-Mar-23 20:25S 29°53' E 030°60'0 0.0
2018-Mar-23 19:55S 29°53' E 030°60'0 0.0
2018-Mar-23 19:28S 29°53' E 030°60'0 0.0
2018-Mar-23 18:58S 29°53' E 030°60'0 0.0
2018-Mar-23 18:28S 29°53' E 030°60'0 0.0
2018-Mar-23 17:58S 29°53' E 030°60'0 0.0
2018-Mar-23 17:28S 29°53' E 030°60'0 0.0
2018-Mar-23 16:58S 29°53' E 030°60'0 0.0
2018-Mar-23 16:28S 29°53' E 030°60'0 0.0
2018-Mar-23 15:58S 29°53' E 030°60'0 0.0
2018-Mar-23 15:28S 29°53' E 030°60'0 0.0
2018-Mar-23 14:58S 29°53' E 030°60'0 0.0
2018-Mar-23 14:28S 29°53' E 030°60'0 0.0
2018-Mar-23 13:58S 29°53' E 030°60'0 0.0
2018-Mar-23 13:28S 29°53' E 030°60'0 0.0
2018-Mar-23 12:55S 29°53' E 030°60'0 0.0
2018-Mar-23 12:25S 29°53' E 030°60'0 0.0
2018-Mar-23 11:58S 29°53' E 030°60'0 0.0
2018-Mar-23 11:25S 29°53' E 030°60'0 0.0
2018-Mar-23 10:58S 29°53' E 030°60'0 0.0
2018-Mar-23 10:28S 29°53' E 030°60'0 0.0
2018-Mar-23 09:55S 29°53' E 030°60'0 0.0
2018-Mar-23 09:28S 29°53' E 030°60'0 0.0
2018-Mar-23 08:58S 29°53' E 030°60'0 0.0
2018-Mar-23 08:28S 29°53' E 030°60'0 0.0
2018-Mar-23 07:55S 29°53' E 030°60'0 0.0
2018-Mar-23 07:28S 29°53' E 030°60'0 0.0
2018-Mar-23 06:58S 29°53' E 030°60'0 0.0
2018-Mar-23 06:25S 29°53' E 030°60'0 0.0
2018-Mar-23 05:58S 29°53' E 030°60'0 0.0
2018-Mar-23 05:25S 29°53' E 030°60'0 0.0
2018-Mar-23 04:58S 29°53' E 030°60'0 0.0
2018-Mar-23 04:25S 29°53' E 030°60'0 0.0
2018-Mar-23 03:55S 29°53' E 030°60'0 0.0
2018-Mar-23 03:25S 29°53' E 030°60'0 0.0
2018-Mar-23 02:55S 29°53' E 030°60'0 0.0
2018-Mar-23 02:25S 29°53' E 030°60'0 0.0
2018-Mar-23 01:58S 29°53' E 030°60'0 0.0
2018-Mar-23 01:25S 29°53' E 030°60'0 0.0
2018-Mar-23 00:55S 29°53' E 030°60'0 0.0
2018-Mar-23 00:25S 29°53' E 030°60'0 0.0
2018-Mar-22 23:58S 29°53' E 030°60'0 0.0
2018-Mar-22 23:25S 29°53' E 030°60'0 0.0
2018-Mar-22 22:55S 29°53' E 030°60'0 0.0
2018-Mar-22 22:25S 29°53' E 030°60'0 0.0
2018-Mar-22 21:55S 29°53' E 030°60'0 0.0
2018-Mar-22 21:28S 29°53' E 030°60'0 0.0
2018-Mar-22 20:58S 29°53' E 030°60'0 0.0
2018-Mar-22 20:28S 29°53' E 030°60'0 0.0
2018-Mar-22 19:58S 29°53' E 030°60'0 0.0
2018-Mar-22 19:28S 29°53' E 030°60'0 0.0
2018-Mar-22 18:58S 29°53' E 030°60'0 0.0
2018-Mar-22 18:25S 29°53' E 030°60'0 0.0
2018-Mar-22 17:58S 29°53' E 030°60'0 0.0
2018-Mar-22 17:28S 29°53' E 030°60'0 0.0
2018-Mar-22 16:58S 29°53' E 030°60'0 0.0
2018-Mar-22 16:25S 29°53' E 030°60'0 0.0
2018-Mar-22 15:58S 29°53' E 030°60'0 0.0
2018-Mar-22 15:25S 29°53' E 030°60'0 0.0
2018-Mar-22 14:58S 29°53' E 030°60'0 0.0
2018-Mar-22 14:25S 29°53' E 030°60'0 0.0
2018-Mar-22 13:46S 29°53' E 030°60'0 0.0
2018-Mar-22 13:28S 29°53' E 030°60'0 0.0
2018-Mar-22 12:58S 29°53' E 030°60'0 0.0
2018-Mar-22 12:25S 29°53' E 030°60'0 0.0
2018-Mar-22 11:58S 29°53' E 030°60'0 0.0
2018-Mar-22 11:28S 29°53' E 030°60'0 0.0
2018-Mar-22 10:58S 29°53' E 030°60'0 0.0
2018-Mar-22 10:28S 29°53' E 030°60'0 0.0
2018-Mar-22 09:55S 29°53' E 030°60'0 0.0
2018-Mar-22 09:28S 29°53' E 030°60'0 0.0
2018-Mar-22 08:58S 29°53' E 030°60'0 0.0
2018-Mar-22 08:25S 29°53' E 030°60'0 0.0
2018-Mar-22 07:58S 29°53' E 030°60'0 0.0
2018-Mar-22 07:25S 29°53' E 030°60'0 0.0
2018-Mar-22 06:58S 29°53' E 030°60'0 0.0
2018-Mar-22 06:25S 29°53' E 030°60'0 0.0
2018-Mar-22 05:55S 29°53' E 030°60'0 0.0
2018-Mar-22 05:28S 29°53' E 030°60'0 0.0
2018-Mar-22 04:58S 29°53' E 030°60'0 0.0
2018-Mar-22 04:28S 29°53' E 030°60'0 0.0
2018-Mar-22 03:55S 29°53' E 030°60'0 0.0
2018-Mar-22 03:25S 29°53' E 030°60'0 0.0
2018-Mar-22 02:58S 29°53' E 030°60'0 0.0
2018-Mar-22 02:25S 29°53' E 030°60'0 0.0
2018-Mar-22 01:58S 29°53' E 030°60'0 0.0
2018-Mar-22 01:28S 29°53' E 030°60'0 0.0
2018-Mar-22 00:55S 29°53' E 030°60'0 0.0
2018-Mar-22 00:25S 29°53' E 030°60'0 0.0
2018-Mar-21 23:55S 29°53' E 030°60'0 0.0
2018-Mar-21 23:25S 29°53' E 030°60'0 0.0
2018-Mar-21 22:55S 29°53' E 030°60'0 0.0
2018-Mar-21 22:25S 29°53' E 030°60'0 0.0
2018-Mar-21 21:58S 29°53' E 030°60'0 0.0
2018-Mar-21 21:28S 29°53' E 030°60'0 0.0
2018-Mar-21 20:58S 29°53' E 030°60'0 0.0
2018-Mar-21 20:28S 29°53' E 030°60'0 0.0
2018-Mar-21 19:58S 29°53' E 030°60'0 0.0
2018-Mar-21 19:28S 29°53' E 030°60'0 0.0
2018-Mar-21 18:58S 29°53' E 030°60'0 0.0
2018-Mar-21 18:28S 29°53' E 030°60'0 0.0
2018-Mar-21 17:58S 29°53' E 030°60'0 0.0
2018-Mar-21 17:28S 29°53' E 030°60'0 0.0
2018-Mar-21 16:58S 29°53' E 030°60'0 0.0
2018-Mar-21 16:28S 29°53' E 030°60'0 0.0
2018-Mar-21 15:58S 29°53' E 030°60'0 0.0
2018-Mar-21 15:28S 29°53' E 030°60'0 0.0
2018-Mar-21 14:58S 29°53' E 030°60'0 0.0
2018-Mar-21 14:28S 29°53' E 030°60'0 0.0
2018-Mar-21 13:58S 29°53' E 030°60'0 0.0
2018-Mar-21 13:25S 29°53' E 030°60'0 0.0
2018-Mar-21 12:55S 29°53' E 030°60'0 0.0
2018-Mar-21 12:28S 29°53' E 030°60'0 0.0
2018-Mar-21 11:58S 29°53' E 030°60'0 0.0
2018-Mar-21 11:25S 29°53' E 030°60'0 0.0
2018-Mar-21 10:55S 29°53' E 030°60'0 0.0
2018-Mar-21 10:28S 29°53' E 030°60'0 0.0
2018-Mar-21 09:58S 29°53' E 030°60'0 0.0
2018-Mar-21 09:25S 29°53' E 030°60'0 0.0
2018-Mar-21 08:55S 29°53' E 030°60'0 0.0
2018-Mar-21 08:25S 29°53' E 030°60'0 0.0
2018-Mar-21 07:58S 29°53' E 030°60'0 0.0
2018-Mar-21 07:25S 29°53' E 030°60'0 0.0
2018-Mar-21 06:58S 29°53' E 030°60'0 0.0
2018-Mar-21 06:28S 29°53' E 030°60'0 0.0
2018-Mar-21 05:55S 29°53' E 030°60'0 0.0
2018-Mar-21 05:25S 29°53' E 030°60'0 0.0
2018-Mar-21 04:55S 29°53' E 030°60'0 0.0
2018-Mar-21 04:28S 29°53' E 030°60'0 0.0
2018-Mar-21 03:55S 29°53' E 030°60'0 0.0
2018-Mar-21 03:25S 29°53' E 030°60'0 0.0
2018-Mar-21 02:58S 29°53' E 030°60'0 0.0
2018-Mar-21 02:25S 29°53' E 030°60'0 0.0
2018-Mar-21 01:55S 29°53' E 030°60'0 0.0
2018-Mar-21 01:25S 29°53' E 030°60'0 0.0
2018-Mar-21 00:55S 29°53' E 030°60'0 0.0
2018-Mar-21 00:25S 29°53' E 030°60'0 0.0
2018-Mar-20 23:55S 29°53' E 030°60'0 0.0
2018-Mar-20 23:25S 29°53' E 030°60'0 0.0
2018-Mar-20 22:55S 29°53' E 030°60'0 0.0
2018-Mar-20 22:25S 29°53' E 030°60'0 0.0
2018-Mar-20 21:55S 29°53' E 030°60'0 0.0
2018-Mar-20 21:25S 29°53' E 030°60'0 0.0
2018-Mar-20 20:58S 29°53' E 030°60'0 0.0
2018-Mar-20 20:25S 29°53' E 030°60'0 0.0
2018-Mar-20 19:58S 29°53' E 030°60'0 0.0
2018-Mar-20 19:25S 29°53' E 030°60'0 0.0
2018-Mar-20 18:58S 29°53' E 030°60'0 0.0
2018-Mar-20 18:28S 29°53' E 030°60'0 0.0
2018-Mar-20 17:58S 29°53' E 030°60'0 0.0
2018-Mar-20 17:28S 29°53' E 030°60'0 0.0
2018-Mar-20 16:58S 29°53' E 030°60'0 0.0
2018-Mar-20 16:28S 29°53' E 030°60'0 0.0
2018-Mar-20 15:55S 29°53' E 030°60'0 0.0
2018-Mar-20 15:25S 29°53' E 030°60'0 0.0
2018-Mar-20 14:49S 29°53' E 030°60'0 0.0
2018-Mar-20 14:25S 29°53' E 030°60'0 0.0
2018-Mar-20 13:55S 29°53' E 030°60'0 0.0
2018-Mar-20 13:25S 29°53' E 030°60'0 0.0
2018-Mar-20 12:58S 29°53' E 030°60'0 0.0
2018-Mar-20 12:25S 29°53' E 030°60'0 0.0
2018-Mar-20 11:55S 29°53' E 030°60'0 0.0
2018-Mar-20 11:25S 29°53' E 030°60'0 0.0
2018-Mar-20 10:58S 29°53' E 030°60'0 0.0
2018-Mar-20 10:28S 29°53' E 030°60'0 0.0
2018-Mar-20 09:58S 29°53' E 030°60'0 0.0
2018-Mar-20 09:25S 29°53' E 030°60'0 0.0
2018-Mar-20 08:55S 29°53' E 030°60'0 0.0
2018-Mar-20 08:28S 29°53' E 030°60'0 0.0
2018-Mar-20 07:55S 29°53' E 030°60'0 0.0
2018-Mar-20 07:28S 29°53' E 030°60'0 0.0
2018-Mar-20 06:58S 29°53' E 030°60'0 0.0
2018-Mar-20 06:28S 29°53' E 030°60'0 0.0
2018-Mar-20 05:55S 29°53' E 030°60'0 0.0
2018-Mar-20 05:25S 29°53' E 030°60'0 0.0
2018-Mar-20 04:58S 29°53' E 030°60'0 0.0
2018-Mar-20 04:25S 29°53' E 030°60'0 0.0
2018-Mar-20 03:55S 29°53' E 030°60'0 0.0
2018-Mar-20 03:25S 29°53' E 030°60'0 0.0
2018-Mar-20 02:55S 29°53' E 030°60'0 0.0
2018-Mar-20 02:28S 29°53' E 030°60'0 0.0
2018-Mar-20 01:55S 29°53' E 030°60'0 0.0
2018-Mar-20 01:25S 29°53' E 030°60'0 0.0
2018-Mar-20 00:55S 29°53' E 030°60'0 0.0
2018-Mar-20 00:28S 29°53' E 030°60'0 0.0
2018-Mar-19 23:55S 29°53' E 030°60'0 0.0
2018-Mar-19 23:25S 29°53' E 030°60'0 0.0
2018-Mar-19 22:58S 29°53' E 030°60'0 0.0
2018-Mar-19 22:28S 29°53' E 030°60'0 0.0
2018-Mar-19 21:58S 29°53' E 030°60'0 0.0
2018-Mar-19 21:28S 29°53' E 030°60'0 0.0
2018-Mar-19 20:58S 29°53' E 030°60'0 0.0
2018-Mar-19 20:25S 29°53' E 030°60'0 0.0
2018-Mar-19 19:46S 29°53' E 030°60'0 0.0
2018-Mar-19 19:28S 29°53' E 030°60'0 0.0
2018-Mar-19 18:58S 29°53' E 030°60'0 0.0
2018-Mar-19 18:28S 29°53' E 030°60'0 0.0
2018-Mar-19 17:58S 29°53' E 030°60'0 0.0
2018-Mar-19 17:25S 29°53' E 030°60'0 0.0
2018-Mar-19 16:58S 29°53' E 030°60'0 0.0
2018-Mar-19 16:28S 29°53' E 030°60'0 0.0
2018-Mar-19 15:55S 29°53' E 030°60'0 0.0
2018-Mar-19 15:28S 29°53' E 030°60'0 0.0
2018-Mar-19 14:58S 29°53' E 030°60'0 0.0
2018-Mar-19 14:28S 29°53' E 030°60'0 0.0
2018-Mar-19 13:55S 29°53' E 030°60'0 0.0
2018-Mar-19 13:25S 29°53' E 030°60'0 0.0
2018-Mar-19 12:58S 29°53' E 030°60'0 0.0
2018-Mar-19 12:28S 29°53' E 030°60'0 0.0
2018-Mar-19 11:58S 29°53' E 030°60'0 0.0
2018-Mar-19 11:28S 29°53' E 030°60'0 0.0
2018-Mar-19 10:55S 29°53' E 030°60'0 0.0
2018-Mar-19 10:28S 29°53' E 030°60'0 0.0
2018-Mar-19 09:55S 29°53' E 030°60'0 0.0
2018-Mar-19 09:25S 29°53' E 030°60'0 0.0
2018-Mar-19 08:55S 29°53' E 030°60'0 0.0
2018-Mar-19 08:25S 29°53' E 030°60'0 0.0
2018-Mar-19 07:58S 29°53' E 030°60'0 0.0
2018-Mar-19 07:25S 29°53' E 030°60'0 0.0
2018-Mar-19 06:58S 29°53' E 030°60'0 0.0
2018-Mar-19 06:25S 29°53' E 030°60'0 0.0
2018-Mar-19 05:58S 29°53' E 030°60'0 0.0
2018-Mar-19 05:28S 29°53' E 030°60'0 0.0
2018-Mar-19 04:58S 29°53' E 030°60'0 0.0
2018-Mar-19 04:25S 29°53' E 030°60'0 0.0
2018-Mar-19 03:58S 29°53' E 030°60'0 0.0
2018-Mar-19 03:28S 29°53' E 030°60'0 0.0
2018-Mar-19 02:58S 29°53' E 030°60'0 0.0
2018-Mar-19 02:25S 29°53' E 030°60'0 0.0
2018-Mar-19 01:58S 29°53' E 030°60'0 0.0
2018-Mar-19 01:28S 29°53' E 030°60'0 0.0
2018-Mar-19 00:58S 29°53' E 030°60'0 0.0
2018-Mar-19 00:28S 29°53' E 030°60'0 0.0
2018-Mar-18 23:58S 29°53' E 030°60'0 0.0
2018-Mar-18 23:28S 29°53' E 030°60'0 0.0
2018-Mar-18 22:55S 29°53' E 030°60'0 0.0
2018-Mar-18 22:28S 29°53' E 030°60'0 0.0
2018-Mar-18 21:58S 29°53' E 030°60'0 0.0
2018-Mar-18 21:28S 29°53' E 030°60'0 0.0
2018-Mar-18 20:58S 29°53' E 030°60'  
Track history (hours):
 
Tides and Currents Weather Stations Pressure Air Temp Water Temp Dewpoint Dewpoint Depression Visibility Wind Speed Wind Dir Waves Ship Positions

Bulk Phoenix

Last reported at 2018-Mar-28 20:37 UTC. Time now 2018-Jun-18 19:31 UTC.
Position S 28°30' E 032°36'.
Warning: this ship's position is months out of date.

Length 190 m; draft 8.8 m.

Type: Cargo ship. MMSI: 370699000.

Date/timePositionNaut miles runAvg speedWind from/ knotsBaromVisibWave heightAir tempDewpointWater temp
2018-Mar-28 20:37S 28°30' E 032°36'1 9.5
2018-Mar-28 20:30S 28°31' E 032°35'6 9.2
2018-Mar-28 19:53S 28°36' E 032°33'4 8.8
2018-Mar-28 19:29S 28°39' E 032°31'5 8.5
2018-Mar-28 18:53S 28°44' E 032°29'10 8.1
2018-Mar-28 17:42S 28°53' E 032°25'4 7.9
2018-Mar-28 17:10S 28°57' E 032°23'2 7.9
2018-Mar-28 16:59S 28°58' E 032°22'4 7.8
2018-Mar-28 16:30S 29°01' E 032°20'4 7.8
2018-Mar-28 16:00S 29°05' E 032°18'4 7.8
2018-Mar-28 15:30S 29°08' E 032°16'4 8.0
2018-Mar-28 15:00S 29°12' E 032°13'4 8.0
2018-Mar-28 14:30S 29°15' E 032°11'4 8.0
2018-Mar-28 14:00S 29°18' E 032°09'4 8.2
2018-Mar-28 13:30S 29°21' E 032°05'4 8.4
2018-Mar-28 13:00S 29°23' E 032°01'4 8.1
2018-Mar-28 12:30S 29°26' E 031°57'4 8.3
2018-Mar-28 12:00S 29°28' E 031°54'4 8.3
2018-Mar-28 11:30S 29°31' E 031°50'4 9.0
2018-Mar-28 11:00S 29°33' E 031°45'510.3
2018-Mar-28 10:30S 29°35' E 031°40'510.3
2018-Mar-28 10:00S 29°37' E 031°34'510.4
2018-Mar-28 09:30S 29°40' E 031°29'510.7
2018-Mar-28 09:00S 29°42' E 031°24'510.7
2018-Mar-28 08:30S 29°45' E 031°18'510.6
2018-Mar-28 08:00S 29°47' E 031°13'611.1
2018-Mar-28 07:30S 29°50' E 031°07'5 9.6
2018-Mar-28 07:00S 29°53' E 031°03'2 4.5
2018-Mar-28 06:30S 29°53' E 031°00'0 0.7
2018-Mar-28 05:55S 29°53' E 030°60'0 0.0
2018-Mar-28 05:25S 29°53' E 030°60'0 0.0
2018-Mar-28 04:55S 29°53' E 030°60'0 0.0
2018-Mar-28 04:28S 29°53' E 030°60'0 0.0
2018-Mar-28 03:58S 29°53' E 030°60'0 0.0
2018-Mar-28 03:25S 29°53' E 030°60'0 0.0
2018-Mar-28 02:55S 29°53' E 030°60'0 0.0
2018-Mar-28 02:25S 29°53' E 030°60'0 0.0
2018-Mar-28 01:58S 29°53' E 030°60'0 0.0
2018-Mar-28 01:25S 29°53' E 030°60'0 0.0
2018-Mar-28 00:55S 29°53' E 030°60'0 0.0
2018-Mar-28 00:25S 29°53' E 030°60'0 0.0
2018-Mar-27 23:55S 29°53' E 030°60'0 0.0
2018-Mar-27 23:25S 29°53' E 030°60'0 0.0
2018-Mar-27 22:58S 29°53' E 030°60'0 0.0
2018-Mar-27 22:25S 29°53' E 030°60'0 0.0
2018-Mar-27 21:55S 29°53' E 030°60'0 0.0
2018-Mar-27 21:28S 29°53' E 030°60'0 0.0
2018-Mar-27 20:49S 29°53' E 030°60'0 0.0
2018-Mar-27 20:25S 29°53' E 030°60'0 0.0
2018-Mar-27 19:49S 29°53' E 030°60'0 0.0
2018-Mar-27 19:28S 29°53' E 030°60'0 0.0
2018-Mar-27 18:58S 29°53' E 030°60'0 0.0
2018-Mar-27 18:25S 29°53' E 030°60'0 0.0
2018-Mar-27 17:58S 29°53' E 030°60'0 0.0
2018-Mar-27 17:28S 29°53' E 030°60'0 0.0
2018-Mar-27 16:58S 29°53' E 030°60'0 0.0
2018-Mar-27 16:28S 29°53' E 030°60'0 0.0
2018-Mar-27 15:58S 29°53' E 030°60'0 0.0
2018-Mar-27 15:25S 29°53' E 030°60'0 0.0
2018-Mar-27 14:55S 29°53' E 030°60'0 0.0
2018-Mar-27 14:28S 29°53' E 030°60'0 0.0
2018-Mar-27 13:55S 29°53' E 030°60'0 0.0
2018-Mar-27 13:25S 29°53' E 030°60'0 0.0
2018-Mar-27 12:55S 29°53' E 030°60'0 0.0
2018-Mar-27 12:25S 29°53' E 030°60'0 0.0
2018-Mar-27 11:55S 29°53' E 030°60'0 0.0
2018-Mar-27 10:37S 29°53' E 030°60'0 0.0
2018-Mar-27 10:25S 29°53' E 030°60'0 0.0
2018-Mar-27 09:49S 29°53' E 030°60'0 0.0
2018-Mar-27 09:25S 29°53' E 030°60'0 0.0
2018-Mar-27 08:55S 29°53' E 030°60'0 0.0
2018-Mar-27 08:25S 29°53' E 030°60'0 0.0
2018-Mar-27 07:55S 29°53' E 030°60'0 0.0
2018-Mar-27 07:25S 29°53' E 030°60'0 0.0
2018-Mar-27 06:55S 29°53' E 030°60'0 0.0
2018-Mar-27 06:25S 29°53' E 030°60'0 0.0
2018-Mar-27 05:55S 29°53' E 030°60'0 0.0
2018-Mar-27 05:28S 29°53' E 030°60'0 0.0
2018-Mar-27 04:58S 29°53' E 030°60'0 0.0
2018-Mar-27 04:22S 29°53' E 030°60'0 0.0
2018-Mar-27 03:55S 29°53' E 030°60'0 0.0
2018-Mar-27 03:28S 29°53' E 030°60'0 0.0
2018-Mar-27 02:58S 29°53' E 030°60'0 0.0
2018-Mar-27 02:25S 29°53' E 030°60'0 0.0
2018-Mar-27 01:55S 29°53' E 030°60'0 0.0
2018-Mar-27 01:25S 29°53' E 030°60'0 0.0
2018-Mar-27 00:55S 29°53' E 030°60'0 0.0
2018-Mar-27 00:25S 29°53' E 030°60'0 0.0
2018-Mar-26 23:55S 29°53' E 030°60'0 0.0
2018-Mar-26 23:28S 29°53' E 030°60'0 0.0
2018-Mar-26 22:55S 29°53' E 030°60'0 0.0
2018-Mar-26 22:25S 29°53' E 030°60'0 0.0
2018-Mar-26 21:55S 29°53' E 030°60'0 0.0
2018-Mar-26 21:28S 29°53' E 030°60'0 0.0
2018-Mar-26 20:55S 29°53' E 030°60'0 0.0
2018-Mar-26 20:28S 29°53' E 030°60'0 0.0
2018-Mar-26 19:55S 29°53' E 030°60'0 0.0
2018-Mar-26 19:25S 29°53' E 030°60'0 0.0
2018-Mar-26 18:58S 29°53' E 030°60'0 0.0
2018-Mar-26 18:28S 29°53' E 030°60'0 0.0
2018-Mar-26 17:58S 29°53' E 030°60'0 0.0
2018-Mar-26 17:28S 29°53' E 030°60'0 0.0
2018-Mar-26 16:58S 29°53' E 030°60'0 0.0
2018-Mar-26 16:28S 29°53' E 030°60'0 0.0
2018-Mar-26 15:55S 29°53' E 030°60'0 0.0
2018-Mar-26 15:25S 29°53' E 030°60'0 0.0
2018-Mar-26 14:55S 29°53' E 030°60'0 0.0
2018-Mar-26 14:28S 29°53' E 030°60'0 0.0
2018-Mar-26 13:55S 29°53' E 030°60'0 0.0
2018-Mar-26 13:25S 29°53' E 030°60'0 0.0
2018-Mar-26 12:55S 29°53' E 030°60'0 0.0
2018-Mar-26 12:25S 29°53' E 030°60'0 0.0
2018-Mar-26 11:55S 29°53' E 030°60'0 0.0
2018-Mar-26 11:25S 29°53' E 030°60'0 0.0
2018-Mar-26 10:58S 29°53' E 030°60'0 0.0
2018-Mar-26 10:25S 29°53' E 030°60'0 0.0
2018-Mar-26 09:55S 29°53' E 030°60'0 0.0
2018-Mar-26 09:25S 29°53' E 030°60'0 0.0
2018-Mar-26 08:58S 29°53' E 030°60'0 0.0
2018-Mar-26 08:25S 29°53' E 030°60'0 0.0
2018-Mar-26 07:58S 29°53' E 030°60'0 0.0
2018-Mar-26 07:25S 29°53' E 030°60'0 0.0
2018-Mar-26 06:55S 29°53' E 030°60'0 0.0
2018-Mar-26 06:25S 29°53' E 030°60'0 0.0
2018-Mar-26 05:55S 29°53' E 030°60'0 0.0
2018-Mar-26 05:28S 29°53' E 030°60'0 0.0
2018-Mar-26 04:58S 29°53' E 030°60'0 0.0
2018-Mar-26 04:25S 29°53' E 030°60'0 0.0
2018-Mar-26 03:58S 29°53' E 030°60'0 0.0
2018-Mar-26 03:28S 29°53' E 030°60'0 0.0
2018-Mar-26 02:55S 29°53' E 030°60'0 0.0
2018-Mar-26 02:25S 29°53' E 030°60'0 0.0
2018-Mar-26 01:55S 29°53' E 030°60'0 0.0
2018-Mar-26 01:28S 29°53' E 030°60'0 0.0
2018-Mar-26 00:55S 29°53' E 030°60'0 0.0
2018-Mar-26 00:25S 29°53' E 030°60'0 0.0
2018-Mar-25 23:55S 29°53' E 030°60'0 0.0
2018-Mar-25 23:25S 29°53' E 030°60'0 0.0
2018-Mar-25 22:55S 29°53' E 030°60'0 0.0
2018-Mar-25 22:25S 29°53' E 030°60'0 0.0
2018-Mar-25 21:55S 29°53' E 030°60'0 0.0
2018-Mar-25 21:25S 29°53' E 030°60'0 0.0
2018-Mar-25 20:55S 29°53' E 030°60'0 0.0
2018-Mar-25 20:25S 29°53' E 030°60'0 0.0
2018-Mar-25 19:55S 29°53' E 030°60'0 0.0
2018-Mar-25 19:25S 29°53' E 030°60'0 0.0
2018-Mar-25 18:55S 29°53' E 030°60'0 0.0
2018-Mar-25 18:28S 29°53' E 030°60'0 0.0
2018-Mar-25 17:58S 29°53' E 030°60'0 0.0
2018-Mar-25 17:25S 29°53' E 030°60'0 0.0
2018-Mar-25 16:58S 29°53' E 030°60'0 0.0
2018-Mar-25 16:28S 29°53' E 030°60'0 0.0
2018-Mar-25 15:46S 29°53' E 030°60'0 0.0
2018-Mar-25 15:28S 29°53' E 030°60'0 0.0
2018-Mar-25 14:58S 29°53' E 030°60'0 0.0
2018-Mar-25 14:28S 29°53' E 030°60'0 0.0
2018-Mar-25 13:55S 29°53' E 030°60'0 0.0
2018-Mar-25 13:25S 29°53' E 030°60'0 0.0
2018-Mar-25 12:58S 29°53' E 030°60'0 0.0
2018-Mar-25 12:25S 29°53' E 030°60'0 0.0
2018-Mar-25 11:55S 29°53' E 030°60'0 0.0
2018-Mar-25 11:25S 29°53' E 030°60'0 0.0
2018-Mar-25 10:55S 29°53' E 030°60'0 0.0
2018-Mar-25 10:19S 29°53' E 030°60'0 0.0
2018-Mar-25 09:55S 29°53' E 030°60'0 0.0
2018-Mar-25 09:25S 29°53' E 030°60'0 0.0
2018-Mar-25 08:55S 29°53' E 030°60'0 0.0
2018-Mar-25 08:28S 29°53' E 030°60'0 0.0
2018-Mar-25 07:55S 29°53' E 030°60'0 0.0
2018-Mar-25 07:25S 29°53' E 030°60'0 0.0
2018-Mar-25 06:55S 29°53' E 030°60'0 0.0
2018-Mar-25 06:25S 29°53' E 030°60'0 0.0
2018-Mar-25 05:55S 29°53' E 030°60'0 0.0
2018-Mar-25 05:25S 29°53' E 030°60'0 0.0
2018-Mar-25 04:58S 29°53' E 030°60'0 0.0
2018-Mar-25 04:28S 29°53' E 030°60'0 0.0
2018-Mar-25 03:58S 29°53' E 030°60'0 0.0
2018-Mar-25 03:25S 29°53' E 030°60'0 0.0
2018-Mar-25 02:55S 29°53' E 030°60'0 0.0
2018-Mar-25 02:28S 29°53' E 030°60'0 0.0
2018-Mar-25 01:55S 29°53' E 030°60'0 0.0
2018-Mar-25 01:28S 29°53' E 030°60'0 0.0
2018-Mar-25 00:58S 29°53' E 030°60'0 0.0
2018-Mar-25 00:28S 29°53' E 030°60'0 0.0
2018-Mar-24 23:58S 29°53' E 030°60'0 0.0
2018-Mar-24 23:28S 29°53' E 030°60'0 0.0
2018-Mar-24 22:58S 29°53' E 030°60'0 0.0
2018-Mar-24 22:25S 29°53' E 030°60'0 0.0
2018-Mar-24 21:58S 29°53' E 030°60'0 0.0
2018-Mar-24 21:25S 29°53' E 030°60'0 0.0
2018-Mar-24 20:55S 29°53' E 030°60'0 0.0
2018-Mar-24 20:28S 29°53' E 030°60'0 0.0
2018-Mar-24 19:58S 29°53' E 030°60'0 0.0
2018-Mar-24 19:28S 29°53' E 030°60'0 0.0
2018-Mar-24 18:58S 29°53' E 030°60'0 0.0
2018-Mar-24 18:28S 29°53' E 030°60'0 0.0
2018-Mar-24 17:58S 29°53' E 030°60'0 0.0
2018-Mar-24 17:28S 29°53' E 030°60'0 0.0
2018-Mar-24 16:58S 29°53' E 030°60'0 0.0
2018-Mar-24 16:28S 29°53' E 030°60'0 0.0
2018-Mar-24 15:58S 29°53' E 030°60'0 0.0
2018-Mar-24 15:25S 29°53' E 030°60'0 0.0
2018-Mar-24 14:55S 29°53' E 030°60'0 0.0
2018-Mar-24 14:25S 29°53' E 030°60'0 0.0
2018-Mar-24 13:55S 29°53' E 030°60'0 0.0
2018-Mar-24 13:25S 29°53' E 030°60'0 0.0
2018-Mar-24 12:58S 29°53' E 030°60'0 0.0
2018-Mar-24 12:25S 29°53' E 030°60'0 0.0
2018-Mar-24 11:58S 29°53' E 030°60'0 0.0
2018-Mar-24 11:28S 29°53' E 030°60'0 0.0
2018-Mar-24 10:58S 29°53' E 030°60'0 0.0
2018-Mar-24 10:28S 29°53' E 030°60'0 0.0
2018-Mar-24 09:55S 29°53' E 030°60'0 0.0
2018-Mar-24 09:28S 29°53' E 030°60'0 0.0
2018-Mar-24 08:58S 29°53' E 030°60'0 0.0
2018-Mar-24 08:25S 29°53' E 030°60'0 0.0
2018-Mar-24 07:55S 29°53' E 030°60'0 0.0
2018-Mar-24 07:25S 29°53' E 030°60'0 0.0
2018-Mar-24 06:58S 29°53' E 030°60'0 0.0
2018-Mar-24 06:25S 29°53' E 030°60'0 0.0
2018-Mar-24 05:58S 29°53' E 030°60'0 0.0
2018-Mar-24 05:28S 29°53' E 030°60'0 0.0
2018-Mar-24 04:58S 29°53' E 030°60'0 0.0
2018-Mar-24 04:28S 29°53' E 030°60'0 0.0
2018-Mar-24 03:55S 29°53' E 030°60'0 0.0
2018-Mar-24 03:28S 29°53' E 030°60'0 0.0
2018-Mar-24 02:55S 29°53' E 030°60'0 0.0
2018-Mar-24 02:28S 29°53' E 030°60'0 0.0
2018-Mar-24 01:58S 29°53' E 030°60'0 0.0
2018-Mar-24 01:28S 29°53' E 030°60'0 0.0
2018-Mar-24 00:55S 29°53' E 030°60'0 0.0
2018-Mar-24 00:28S 29°53' E 030°60'0 0.0
2018-Mar-23 23:55S 29°53' E 030°60'0 0.0
2018-Mar-23 23:25S 29°53' E 030°60'0 0.0
2018-Mar-23 22:55S 29°53' E 030°60'0 0.0
2018-Mar-23 22:25S 29°53' E 030°60'0 0.0
2018-Mar-23 21:58S 29°53' E 030°60'0 0.0
2018-Mar-23 21:28S 29°53' E 030°60'0 0.0
2018-Mar-23 20:58S 29°53' E 030°60'0 0.0
2018-Mar-23 20:25S 29°53' E 030°60'0 0.0
2018-Mar-23 19:55S 29°53' E 030°60'0 0.0
2018-Mar-23 19:28S 29°53' E 030°60'0 0.0
2018-Mar-23 18:58S 29°53' E 030°60'0 0.0
2018-Mar-23 18:28S 29°53' E 030°60'0 0.0
2018-Mar-23 17:58S 29°53' E 030°60'0 0.0
2018-Mar-23 17:28S 29°53' E 030°60'0 0.0
2018-Mar-23 16:58S 29°53' E 030°60'0 0.0
2018-Mar-23 16:28S 29°53' E 030°60'0 0.0
2018-Mar-23 15:58S 29°53' E 030°60'0 0.0
2018-Mar-23 15:28S 29°53' E 030°60'0 0.0
2018-Mar-23 14:58S 29°53' E 030°60'0 0.0
2018-Mar-23 14:28S 29°53' E 030°60'0 0.0
2018-Mar-23 13:58S 29°53' E 030°60'0 0.0
2018-Mar-23 13:28S 29°53' E 030°60'0 0.0
2018-Mar-23 12:55S 29°53' E 030°60'0 0.0
2018-Mar-23 12:25S 29°53' E 030°60'0 0.0
2018-Mar-23 11:58S 29°53' E 030°60'0 0.0
2018-Mar-23 11:25S 29°53' E 030°60'0 0.0
2018-Mar-23 10:58S 29°53' E 030°60'0 0.0
2018-Mar-23 10:28S 29°53' E 030°60'0 0.0
2018-Mar-23 09:55S 29°53' E 030°60'0 0.0
2018-Mar-23 09:28S 29°53' E 030°60'0 0.0
2018-Mar-23 08:58S 29°53' E 030°60'0 0.0
2018-Mar-23 08:28S 29°53' E 030°60'0 0.0
2018-Mar-23 07:55S 29°53' E 030°60'0 0.0
2018-Mar-23 07:28S 29°53' E 030°60'0 0.0
2018-Mar-23 06:58S 29°53' E 030°60'0 0.0
2018-Mar-23 06:25S 29°53' E 030°60'0 0.0
2018-Mar-23 05:58S 29°53' E 030°60'0 0.0
2018-Mar-23 05:25S 29°53' E 030°60'0 0.0
2018-Mar-23 04:58S 29°53' E 030°60'0 0.0
2018-Mar-23 04:25S 29°53' E 030°60'0 0.0
2018-Mar-23 03:55S 29°53' E 030°60'0 0.0
2018-Mar-23 03:25S 29°53' E 030°60'0 0.0
2018-Mar-23 02:55S 29°53' E 030°60'0 0.0
2018-Mar-23 02:25S 29°53' E 030°60'0 0.0
2018-Mar-23 01:58S 29°53' E 030°60'0 0.0
2018-Mar-23 01:25S 29°53' E 030°60'0 0.0
2018-Mar-23 00:55S 29°53' E 030°60'0 0.0
2018-Mar-23 00:25S 29°53' E 030°60'0 0.0
2018-Mar-22 23:58S 29°53' E 030°60'0 0.0
2018-Mar-22 23:25S 29°53' E 030°60'0 0.0
2018-Mar-22 22:55S 29°53' E 030°60'0 0.0
2018-Mar-22 22:25S 29°53' E 030°60'0 0.0
2018-Mar-22 21:55S 29°53' E 030°60'0 0.0
2018-Mar-22 21:28S 29°53' E 030°60'0 0.0
2018-Mar-22 20:58S 29°53' E 030°60'0 0.0
2018-Mar-22 20:28S 29°53' E 030°60'0 0.0
2018-Mar-22 19:58S 29°53' E 030°60'0 0.0
2018-Mar-22 19:28S 29°53' E 030°60'0 0.0
2018-Mar-22 18:58S 29°53' E 030°60'0 0.0
2018-Mar-22 18:25S 29°53' E 030°60'0 0.0
2018-Mar-22 17:58S 29°53' E 030°60'0 0.0
2018-Mar-22 17:28S 29°53' E 030°60'0 0.0
2018-Mar-22 16:58S 29°53' E 030°60'0 0.0
2018-Mar-22 16:25S 29°53' E 030°60'0 0.0
2018-Mar-22 15:58S 29°53' E 030°60'0 0.0
2018-Mar-22 15:25S 29°53' E 030°60'0 0.0
2018-Mar-22 14:58S 29°53' E 030°60'0 0.0
2018-Mar-22 14:25S 29°53' E 030°60'0 0.0
2018-Mar-22 13:46S 29°53' E 030°60'0 0.0
2018-Mar-22 13:28S 29°53' E 030°60'0 0.0
2018-Mar-22 12:58S 29°53' E 030°60'0 0.0
2018-Mar-22 12:25S 29°53' E 030°60'0 0.0
2018-Mar-22 11:58S 29°53' E 030°60'0 0.0
2018-Mar-22 11:28S 29°53' E 030°60'0 0.0
2018-Mar-22 10:58S 29°53' E 030°60'0 0.0
2018-Mar-22 10:28S 29°53' E 030°60'0 0.0
2018-Mar-22 09:55S 29°53' E 030°60'0 0.0
2018-Mar-22 09:28S 29°53' E 030°60'0 0.0
2018-Mar-22 08:58S 29°53' E 030°60'0 0.0
2018-Mar-22 08:25S 29°53' E 030°60'0 0.0
2018-Mar-22 07:58S 29°53' E 030°60'0 0.0
2018-Mar-22 07:25S 29°53' E 030°60'0 0.0
2018-Mar-22 06:58S 29°53' E 030°60'0 0.0
2018-Mar-22 06:25S 29°53' E 030°60'0 0.0
2018-Mar-22 05:55S 29°53' E 030°60'0 0.0
2018-Mar-22 05:28S 29°53' E 030°60'0 0.0
2018-Mar-22 04:58S 29°53' E 030°60'0 0.0
2018-Mar-22 04:28S 29°53' E 030°60'0 0.0
2018-Mar-22 03:55S 29°53' E 030°60'0 0.0
2018-Mar-22 03:25S 29°53' E 030°60'0 0.0
2018-Mar-22 02:58S 29°53' E 030°60'0 0.0
2018-Mar-22 02:25S 29°53' E 030°60'0 0.0
2018-Mar-22 01:58S 29°53' E 030°60'0 0.0
2018-Mar-22 01:28S 29°53' E 030°60'0 0.0
2018-Mar-22 00:55S 29°53' E 030°60'0 0.0
2018-Mar-22 00:25S 29°53' E 030°60'0 0.0
2018-Mar-21 23:55S 29°53' E 030°60'0 0.0
2018-Mar-21 23:25S 29°53' E 030°60'0 0.0
2018-Mar-21 22:55S 29°53' E 030°60'0 0.0
2018-Mar-21 22:25S 29°53' E 030°60'0 0.0
2018-Mar-21 21:58S 29°53' E 030°60'0 0.0
2018-Mar-21 21:28S 29°53' E 030°60'0 0.0
2018-Mar-21 20:58S 29°53' E 030°60'0 0.0
2018-Mar-21 20:28S 29°53' E 030°60'0 0.0
2018-Mar-21 19:58S 29°53' E 030°60'0 0.0
2018-Mar-21 19:28S 29°53' E 030°60'0 0.0
2018-Mar-21 18:58S 29°53' E 030°60'0 0.0
2018-Mar-21 18:28S 29°53' E 030°60'0 0.0
2018-Mar-21 17:58S 29°53' E 030°60'0 0.0
2018-Mar-21 17:28S 29°53' E 030°60'0 0.0
2018-Mar-21 16:58S 29°53' E 030°60'0 0.0
2018-Mar-21 16:28S 29°53' E 030°60'0 0.0
2018-Mar-21 15:58S 29°53' E 030°60'0 0.0
2018-Mar-21 15:28S 29°53' E 030°60'0 0.0
2018-Mar-21 14:58S 29°53' E 030°60'0 0.0
2018-Mar-21 14:28S 29°53' E 030°60'0 0.0
2018-Mar-21 13:58S 29°53' E 030°60'0 0.0
2018-Mar-21 13:25S 29°53' E 030°60'0 0.0
2018-Mar-21 12:55S 29°53' E 030°60'0 0.0
2018-Mar-21 12:28S 29°53' E 030°60'0 0.0
2018-Mar-21 11:58S 29°53' E 030°60'0 0.0
2018-Mar-21 11:25S 29°53' E 030°60'0 0.0
2018-Mar-21 10:55S 29°53' E 030°60'0 0.0
2018-Mar-21 10:28S 29°53' E 030°60'0 0.0
2018-Mar-21 09:58S 29°53' E 030°60'0 0.0
2018-Mar-21 09:25S 29°53' E 030°60'0 0.0
2018-Mar-21 08:55S 29°53' E 030°60'0 0.0
2018-Mar-21 08:25S 29°53' E 030°60'0 0.0
2018-Mar-21 07:58S 29°53' E 030°60'0 0.0
2018-Mar-21 07:25S 29°53' E 030°60'0 0.0
2018-Mar-21 06:58S 29°53' E 030°60'0 0.0
2018-Mar-21 06:28S 29°53' E 030°60'0 0.0
2018-Mar-21 05:55S 29°53' E 030°60'0 0.0
2018-Mar-21 05:25S 29°53' E 030°60'0 0.0
2018-Mar-21 04:55S 29°53' E 030°60'0 0.0
2018-Mar-21 04:28S 29°53' E 030°60'0 0.0
2018-Mar-21 03:55S 29°53' E 030°60'0 0.0
2018-Mar-21 03:25S 29°53' E 030°60'0 0.0
2018-Mar-21 02:58S 29°53' E 030°60'0 0.0
2018-Mar-21 02:25S 29°53' E 030°60'0 0.0
2018-Mar-21 01:55S 29°53' E 030°60'0 0.0
2018-Mar-21 01:25S 29°53' E 030°60'0 0.0
2018-Mar-21 00:55S 29°53' E 030°60'0 0.0
2018-Mar-21 00:25S 29°53' E 030°60'0 0.0
2018-Mar-20 23:55S 29°53' E 030°60'0 0.0
2018-Mar-20 23:25S 29°53' E 030°60'0 0.0
2018-Mar-20 22:55S 29°53' E 030°60'0 0.0
2018-Mar-20 22:25S 29°53' E 030°60'0 0.0
2018-Mar-20 21:55S 29°53' E 030°60'0 0.0
2018-Mar-20 21:25S 29°53' E 030°60'0 0.0
2018-Mar-20 20:58S 29°53' E 030°60'0 0.0
2018-Mar-20 20:25S 29°53' E 030°60'0 0.0
2018-Mar-20 19:58S 29°53' E 030°60'0 0.0
2018-Mar-20 19:25S 29°53' E 030°60'0 0.0
2018-Mar-20 18:58S 29°53' E 030°60'0 0.0
2018-Mar-20 18:28S 29°53' E 030°60'0 0.0
2018-Mar-20 17:58S 29°53' E 030°60'0 0.0
2018-Mar-20 17:28S 29°53' E 030°60'0 0.0
2018-Mar-20 16:58S 29°53' E 030°60'0 0.0
2018-Mar-20 16:28S 29°53' E 030°60'0 0.0
2018-Mar-20 15:55S 29°53' E 030°60'0 0.0
2018-Mar-20 15:25S 29°53' E 030°60'0 0.0
2018-Mar-20 14:49S 29°53' E 030°60'0 0.0
2018-Mar-20 14:25S 29°53' E 030°60'0 0.0
2018-Mar-20 13:55S 29°53' E 030°60'0 0.0
2018-Mar-20 13:25S 29°53' E 030°60'0 0.0
2018-Mar-20 12:58S 29°53' E 030°60'0 0.0
2018-Mar-20 12:25S 29°53' E 030°60'0 0.0
2018-Mar-20 11:55S 29°53' E 030°60'0 0.0
2018-Mar-20 11:25S 29°53' E 030°60'0 0.0
2018-Mar-20 10:58S 29°53' E 030°60'0 0.0
2018-Mar-20 10:28S 29°53' E 030°60'0 0.0
2018-Mar-20 09:58S 29°53' E 030°60'0 0.0
2018-Mar-20 09:25S 29°53' E 030°60'0 0.0
2018-Mar-20 08:55S 29°53' E 030°60'0 0.0
2018-Mar-20 08:28S 29°53' E 030°60'0 0.0
2018-Mar-20 07:55S 29°53' E 030°60'0 0.0
2018-Mar-20 07:28S 29°53' E 030°60'0 0.0
2018-Mar-20 06:58S 29°53' E 030°60'0 0.0
2018-Mar-20 06:28S 29°53' E 030°60'0 0.0
2018-Mar-20 05:55S 29°53' E 030°60'0 0.0
2018-Mar-20 05:25S 29°53' E 030°60'0 0.0
2018-Mar-20 04:58S 29°53' E 030°60'0 0.0
2018-Mar-20 04:25S 29°53' E 030°60'0 0.0
2018-Mar-20 03:55S 29°53' E 030°60'0 0.0
2018-Mar-20 03:25S 29°53' E 030°60'0 0.0
2018-Mar-20 02:55S 29°53' E 030°60'0 0.0
2018-Mar-20 02:28S 29°53' E 030°60'0 0.0
2018-Mar-20 01:55S 29°53' E 030°60'0 0.0
2018-Mar-20 01:25S 29°53' E 030°60'0 0.0
2018-Mar-20 00:55S 29°53' E 030°60'0 0.0
2018-Mar-20 00:28S 29°53' E 030°60'0 0.0
2018-Mar-19 23:55S 29°53' E 030°60'0 0.0
2018-Mar-19 23:25S 29°53' E 030°60'0 0.0
2018-Mar-19 22:58S 29°53' E 030°60'0 0.0
2018-Mar-19 22:28S 29°53' E 030°60'0 0.0
2018-Mar-19 21:58S 29°53' E 030°60'0 0.0
2018-Mar-19 21:28S 29°53' E 030°60'0 0.0
2018-Mar-19 20:58S 29°53' E 030°60'0 0.0
2018-Mar-19 20:25S 29°53' E 030°60'0 0.0
2018-Mar-19 19:46S 29°53' E 030°60'0 0.0
2018-Mar-19 19:28S 29°53' E 030°60'0 0.0
2018-Mar-19 18:58S 29°53' E 030°60'0 0.0
2018-Mar-19 18:28S 29°53' E 030°60'0 0.0
2018-Mar-19 17:58S 29°53' E 030°60'0 0.0
2018-Mar-19 17:25S 29°53' E 030°60'0 0.0
2018-Mar-19 16:58S 29°53' E 030°60'0 0.0
2018-Mar-19 16:28S 29°53' E 030°60'0 0.0
2018-Mar-19 15:55S 29°53' E 030°60'0 0.0
2018-Mar-19 15:28S 29°53' E 030°60'0 0.0
2018-Mar-19 14:58S 29°53' E 030°60'0 0.0
2018-Mar-19 14:28S 29°53' E 030°60'0 0.0
2018-Mar-19 13:55S 29°53' E 030°60'0 0.0
2018-Mar-19 13:25S 29°53' E 030°60'0 0.0
2018-Mar-19 12:58S 29°53' E 030°60'0 0.0
2018-Mar-19 12:28S 29°53' E 030°60'0 0.0
2018-Mar-19 11:58S 29°53' E 030°60'0 0.0
2018-Mar-19 11:28S 29°53' E 030°60'0 0.0
2018-Mar-19 10:55S 29°53' E 030°60'0 0.0
2018-Mar-19 10:28S 29°53' E 030°60'0 0.0
2018-Mar-19 09:55S 29°53' E 030°60'0 0.0
2018-Mar-19 09:25S 29°53' E 030°60'0 0.0
2018-Mar-19 08:55S 29°53' E 030°60'0 0.0
2018-Mar-19 08:25S 29°53' E 030°60'0 0.0
2018-Mar-19 07:58S 29°53' E 030°60'0 0.0
2018-Mar-19 07:25S 29°53' E 030°60'0 0.0
2018-Mar-19 06:58S 29°53' E 030°60'0 0.0
2018-Mar-19 06:25S 29°53' E 030°60'0 0.0
2018-Mar-19 05:58S 29°53' E 030°60'0 0.0
2018-Mar-19 05:28S 29°53' E 030°60'0 0.0
2018-Mar-19 04:58S 29°53' E 030°60'0 0.0
2018-Mar-19 04:25S 29°53' E 030°60'0 0.0
2018-Mar-19 03:58S 29°53' E 030°60'0 0.0
2018-Mar-19 03:28S 29°53' E 030°60'0 0.0
2018-Mar-19 02:58S 29°53' E 030°60'0 0.0
2018-Mar-19 02:25S 29°53' E 030°60'0 0.0
2018-Mar-19 01:58S 29°53' E 030°60'0 0.0
2018-Mar-19 01:28S 29°53' E 030°60'0 0.0
2018-Mar-19 00:58S 29°53' E 030°60'0 0.0
2018-Mar-19 00:28S 29°53' E 030°60'0 0.0
2018-Mar-18 23:58S 29°53' E 030°60'0 0.0
2018-Mar-18 23:28S 29°53' E 030°60'0 0.0
2018-Mar-18 22:55S 29°53' E 030°60'0 0.0
2018-Mar-18 22:28S 29°53' E 030°60'0 0.0
2018-Mar-18 21:58S 29°53' E 030°60'0 0.0
2018-Mar-18 21:28S 29°53' E 030°60'0 0.0
2018-Mar-18 20:58S 29°53' E 030°60'  

Dump ship's entire track history